Time;durP1;ratioP1;P1;durP2;ratioP2;P2;SDS_P1;SDS_P2;PMS_P1;PMS_P2;Temp;Humidity;BMP_temperature;BMP_pressure;BME280_temperature;BME280_humidity;BME280_pressure;Samples;Min_cycle;Max_cycle;Signal;HPM_P1;HPM_P2
2023/10/25 00:02:22;;;;;;;;;;;;;;;10.28;92.69;98066.47;7304149;39;20015;31
2023/10/25 00:07:42;;;;;;;;;;;;;;;10.04;93.11;98063.28;7297906;40;20134;31
2023/10/25 00:13:03;;;;;;;;;;;;;;;9.99;93.79;98060.31;7270297;39;19992;31
2023/10/25 00:18:37;;;;;;;;;;;;;;;10.01;94.10;98060.94;7298012;39;20012;31
2023/10/25 00:23:55;;;;;;;;;;;;;;;10.03;93.74;98042.75;7290988;39;20069;31
2023/10/25 00:29:30;;;;;;;;;;;;;;;10.00;93.57;98062.84;7314084;39;20008;31
2023/10/25 00:35:03;;;;;;;;;;;;;;;9.96;94.07;98056.13;7305303;39;21117;31
2023/10/25 00:40:23;;;;;;;;;;;;;;;9.84;94.18;98061.19;7254745;40;19992;31
2023/10/25 00:46:00;;;;;;;;;;;;;;;9.82;94.54;98057.87;7265699;40;19992;31
2023/10/25 00:51:36;;;;;;;;;;;;;;;9.85;94.19;98060.19;7195942;40;20014;31
2023/10/25 01:02:12;;;;;;;;;;;;;;;10.14;94.04;98058.41;7301611;39;20238;31
2023/10/25 01:07:46;;;;;;;;;;;;;;;10.26;93.88;98048.84;7272761;40;20006;31
2023/10/25 01:13:06;;;;;;;;;;;;;;;10.37;93.72;98045.59;7267054;39;20034;31
2023/10/25 01:18:27;;;;;;;;;;;;;;;10.35;93.17;98050.37;7300339;39;20003;31
2023/10/25 01:24:04;;;;;;;;;;;;;;;10.33;93.09;98057.81;7265336;39;19996;31
2023/10/25 01:29:39;;;;;;;;;;;;;;;10.31;92.81;98052.59;7261793;40;19993;31
2023/10/25 01:35:14;;;;;;;;;;;;;;;10.19;92.95;98048.75;7270892;40;20094;31
2023/10/25 01:40:50;;;;;;;;;;;;;;;10.14;93.53;98042.25;7253661;40;20004;31
2023/10/25 01:46:25;;;;;;;;;;;;;;;10.05;93.58;98046.12;7209851;40;20009;31
2023/10/25 01:51:45;;;;;;;;;;;;;;;10.08;93.49;98037.66;7243473;39;20148;31
2023/10/25 01:57:19;;;;;;;;;;;;;;;9.93;93.94;98032.31;7199766;40;21122;31
2023/10/25 02:02:51;;;;;;;;;;;;;;;9.88;94.39;98023.97;7163882;40;19994;31
2023/10/25 02:08:11;;;;;;;;;;;;;;;9.77;95.02;98011.03;7215145;40;19993;31
2023/10/25 02:13:44;;;;;;;;;;;;;;;9.78;95.21;98018.09;7251439;39;20006;31
2023/10/25 02:19:04;;;;;;;;;;;;;;;9.78;94.89;98005.47;7286874;39;20006;31
2023/10/25 02:29:44;;;;;;;;;;;;;;;9.49;94.92;98005.53;7303620;39;20023;31
2023/10/25 02:35:20;;;;;;;;;;;;;;;9.43;94.76;97993.66;7315356;39;19991;31
2023/10/25 02:40:53;;;;;;;;;;;;;;;9.43;94.47;97987.47;7267599;40;20198;31
2023/10/25 02:46:30;;;;;;;;;;;;;;;9.52;94.28;97987.16;7217283;40;20106;31
2023/10/25 02:51:51;;;;;;;;;;;;;;;9.58;93.42;97982.03;7147753;40;20006;31
2023/10/25 03:08:13;;;;;;;;;;;;;;;9.53;91.72;97971.84;7285789;39;20007;31
2023/10/25 03:13:34;;;;;;;;;;;;;;;9.24;91.32;97963.88;7323621;39;20010;31
2023/10/25 03:18:54;;;;;;;;;;;;;;;9.16;92.05;97962.12;7318800;39;20079;31
2023/10/25 03:24:30;;;;;;;;;;;;;;;9.25;92.87;97950.25;7316550;39;20007;31
2023/10/25 03:29:51;;;;;;;;;;;;;;;9.29;92.26;97943.47;7246918;40;20007;31
2023/10/25 03:35:26;;;;;;;;;;;;;;;9.35;92.59;97936.47;7244384;40;21175;31
2023/10/25 03:41:04;;;;;;;;;;;;;;;9.43;93.04;97920.25;7260595;40;19992;31
2023/10/25 03:46:24;;;;;;;;;;;;;;;9.54;92.64;97918.88;7235140;40;20013;31
2023/10/25 03:51:44;;;;;;;;;;;;;;;9.58;92.78;97923.69;7263371;39;20037;31
2023/10/25 03:57:22;;;;;;;;;;;;;;;9.64;92.54;97927.47;7275749;39;19992;31
2023/10/25 04:02:42;;;;;;;;;;;;;;;9.52;92.66;97908.34;7272039;39;20003;31
2023/10/25 04:08:02;;;;;;;;;;;;;;;9.47;92.93;97905.41;7278202;40;20015;31
2023/10/25 04:13:38;;;;;;;;;;;;;;;9.56;93.33;97895.34;7282562;40;19996;31
2023/10/25 04:18:55;;;;;;;;;;;;;;;9.70;93.51;97889.03;7091290;40;20802;31
2023/10/25 04:24:15;;;;;;;;;;;;;;;9.77;93.29;97885.41;7312746;39;20046;31
2023/10/25 04:29:52;;;;;;;;;;;;;;;9.85;93.19;97879.88;7299920;39;20088;31
2023/10/25 04:35:13;;;;;;;;;;;;;;;9.81;92.66;97881.28;7276637;40;19992;31
2023/10/25 04:40:33;;;;;;;;;;;;;;;9.84;93.17;97878.19;7280611;40;19992;31
2023/10/25 04:46:09;;;;;;;;;;;;;;;9.84;93.37;97878.19;7249372;40;20052;31
2023/10/25 04:51:45;;;;;;;;;;;;;;;9.82;93.57;97872.19;7254786;40;20078;31
2023/10/25 04:57:06;;;;;;;;;;;;;;;9.79;93.60;97866.34;7230849;40;19993;31
2023/10/25 05:02:42;;;;;;;;;;;;;;;9.80;93.86;97844.63;7268105;40;20166;31
2023/10/25 05:08:03;;;;;;;;;;;;;;;9.70;94.32;97840.59;7230000;40;20013;31
2023/10/25 05:13:24;;;;;;;;;;;;;;;9.69;94.87;97838.97;7228125;40;19994;31
2023/10/25 05:19:02;;;;;;;;;;;;;;;9.71;94.93;97821.59;7256294;40;19993;31
2023/10/25 05:24:36;;;;;;;;;;;;;;;9.79;95.57;97817.91;7254627;40;19992;31
2023/10/25 05:30:14;;;;;;;;;;;;;;;9.81;95.13;97805.09;7279816;40;19992;31
2023/10/25 05:35:51;;;;;;;;;;;;;;;9.80;95.74;97795.38;7259316;40;20008;31
2023/10/25 05:41:27;;;;;;;;;;;;;;;9.88;95.64;97779.91;7271719;39;19997;31
2023/10/25 05:47:02;;;;;;;;;;;;;;;9.93;95.95;97777.44;7226706;40;20004;31
2023/10/25 05:57:45;;;;;;;;;;;;;;;10.06;95.80;97775.87;7270439;39;20113;31
2023/10/25 06:08:09;;;;;;;;;;;;;;;10.05;95.64;97758.88;7301005;39;20022;31
2023/10/25 06:18:51;;;;;;;;;;;;;;;10.06;95.52;97738.19;7302745;39;20010;31
2023/10/25 06:24:27;;;;;;;;;;;;;;;9.90;96.49;97726.72;7298824;39;20004;31
2023/10/25 06:29:47;;;;;;;;;;;;;;;9.79;97.22;97721.03;7253282;40;20016;31
2023/10/25 06:35:25;;;;;;;;;;;;;;;9.73;97.65;97727.25;7242585;40;20004;31
2023/10/25 06:40:59;;;;;;;;;;;;;;;9.61;98.41;97736.87;7246777;40;20000;31
2023/10/25 06:46:35;;;;;;;;;;;;;;;9.75;97.86;97730.53;7252297;40;19993;31
2023/10/25 06:52:12;;;;;;;;;;;;;;;9.89;97.74;97711.59;7216228;40;20100;31
2023/10/25 06:57:33;;;;;;;;;;;;;;;10.02;97.46;97716.22;7190542;40;19994;31
2023/10/25 07:03:08;;;;;;;;;;;;;;;10.03;97.09;97696.34;7247816;40;20075;31
2023/10/25 07:08:45;;;;;;;;;;;;;;;10.05;97.08;97682.72;7247835;40;20008;31
2023/10/25 07:14:06;;;;;;;;;;;;;;;10.16;97.47;97680.28;7255776;40;19993;31
2023/10/25 07:19:26;;;;;;;;;;;;;;;10.24;97.77;97698.97;7265561;40;20015;31
2023/10/25 07:25:02;;;;;;;;;;;;;;;10.33;97.45;97688.84;7264457;40;21102;31
2023/10/25 07:30:38;;;;;;;;;;;;;;;10.40;97.56;97676.22;7248426;40;19992;31
2023/10/25 07:36:13;;;;;;;;;;;;;;;10.49;96.83;97677.69;7258946;40;20094;31
2023/10/25 07:41:50;;;;;;;;;;;;;;;10.51;96.46;97664.03;7239957;40;19994;31
2023/10/25 07:47:11;;;;;;;;;;;;;;;10.53;96.36;97664.66;7231613;39;19992;31
2023/10/25 07:52:48;;;;;;;;;;;;;;;10.50;97.21;97663.19;7254579;39;20003;31
2023/10/25 07:58:23;;;;;;;;;;;;;;;10.56;97.44;97642.69;7263214;39;20016;31
2023/10/25 08:03:43;;;;;;;;;;;;;;;10.62;96.90;97636.50;7217904;40;20095;31
2023/10/25 08:09:16;;;;;;;;;;;;;;;10.61;97.00;97630.28;7234525;40;20050;31
2023/10/25 08:14:52;;;;;;;;;;;;;;;10.62;97.23;97620.34;7256487;40;19992;31
2023/10/25 08:20:13;;;;;;;;;;;;;;;10.63;97.79;97630.87;7203087;40;20016;31
2023/10/25 08:25:50;;;;;;;;;;;;;;;10.68;97.31;97620.31;7231066;40;20083;31
2023/10/25 08:31:27;;;;;;;;;;;;;;;10.59;98.07;97613.47;7235490;40;19993;31
2023/10/25 08:36:49;;;;;;;;;;;;;;;10.57;98.67;97607.47;7246705;39;20000;31
2023/10/25 08:42:23;;;;;;;;;;;;;;;10.57;98.38;97601.25;7296419;39;20011;31
2023/10/25 08:48:00;;;;;;;;;;;;;;;10.70;98.37;97609.34;7280762;40;19992;31
2023/10/25 08:53:38;;;;;;;;;;;;;;;10.72;97.71;97600.00;7305110;39;20003;31
2023/10/25 08:59:13;;;;;;;;;;;;;;;10.81;97.71;97596.06;7261355;40;20024;31
2023/10/25 09:04:50;;;;;;;;;;;;;;;10.90;97.23;97590.47;7205322;40;20012;31
2023/10/25 09:10:26;;;;;;;;;;;;;;;10.95;96.99;97585.28;7198582;40;20005;31
2023/10/25 09:15:47;;;;;;;;;;;;;;;10.94;97.06;97578.22;7209493;40;19996;31
2023/10/25 09:21:23;;;;;;;;;;;;;;;10.98;96.74;97579.47;7239019;40;20003;31
2023/10/25 09:26:43;;;;;;;;;;;;;;;11.04;96.52;97566.00;7247782;40;20038;31
2023/10/25 09:32:21;;;;;;;;;;;;;;;11.05;96.83;97551.50;7254190;40;20085;31
2023/10/25 09:37:59;;;;;;;;;;;;;;;11.07;96.34;97549.41;7236941;40;20009;31
2023/10/25 09:43:34;;;;;;;;;;;;;;;11.08;97.03;97536.75;7269302;40;19993;31
2023/10/25 09:49:10;;;;;;;;;;;;;;;11.11;96.28;97530.91;7274896;40;19992;31
2023/10/25 09:54:45;;;;;;;;;;;;;;;11.13;96.46;97512.69;7209592;40;20008;31
2023/10/25 10:00:21;;;;;;;;;;;;;;;11.19;96.26;97498.34;7219566;40;20240;31
2023/10/25 10:05:57;;;;;;;;;;;;;;;11.24;96.61;97479.66;7217624;40;19993;31
2023/10/25 10:16:38;;;;;;;;;;;;;;;11.28;96.55;97456.59;7282289;39;20011;31
2023/10/25 10:27:03;;;;;;;;;;;;;;;11.26;97.25;97437.97;7281877;39;19996;31
2023/10/25 10:37:44;;;;;;;;;;;;;;;11.26;97.29;97424.47;7310243;39;20027;31
2023/10/25 10:48:25;;;;;;;;;;;;;;;11.28;98.10;97392.72;7321551;39;19998;31
2023/10/25 10:59:06;;;;;;;;;;;;;;;11.38;97.75;97367.97;7288466;39;21172;31
2023/10/25 11:09:46;;;;;;;;;;;;;;;11.41;98.63;97345.16;7239960;40;20101;31
2023/10/25 11:15:24;;;;;;;;;;;;;;;11.44;97.91;97332.03;7082666;40;20092;31
2023/10/25 11:20:55;;;;;;;;;;;;;;;11.49;98.24;97321.44;7202645;40;20044;31
2023/10/25 11:26:37;;;;;;;;;;;;;;;11.58;98.04;97319.28;7236897;40;20129;31
2023/10/25 11:32:12;;;;;;;;;;;;;;;11.61;97.68;97318.84;7278359;39;20015;31
2023/10/25 11:37:43;;;;;;;;;;;;;;;11.63;97.94;97308.63;7256786;40;19992;31
2023/10/25 11:43:19;;;;;;;;;;;;;;;11.64;97.85;97303.03;7254310;40;20075;31
2023/10/25 11:48:55;;;;;;;;;;;;;;;11.69;98.91;97283.47;7259505;40;20074;31
2023/10/25 11:54:17;;;;;;;;;;;;;;;11.71;98.53;97276.84;7227636;40;20004;31
2023/10/25 11:59:37;;;;;;;;;;;;;;;11.75;98.73;97271.84;7231735;40;20126;31
2023/10/25 12:05:14;;;;;;;;;;;;;;;11.73;98.97;97263.13;7259053;40;19991;31
2023/10/25 12:15:53;;;;;;;;;;;;;;;11.73;98.74;97241.53;7296991;39;20028;31
2023/10/25 12:21:32;;;;;;;;;;;;;;;11.73;98.64;97238.84;7260577;40;19996;31
2023/10/25 12:26:50;;;;;;;;;;;;;;;11.74;99.29;97210.81;7296218;39;19996;31
2023/10/25 12:32:10;;;;;;;;;;;;;;;11.78;99.38;97214.72;7341440;39;20110;31
2023/10/25 12:37:47;;;;;;;;;;;;;;;11.81;99.12;97206.16;7308069;39;21173;31
2023/10/25 12:43:08;;;;;;;;;;;;;;;11.84;99.68;97192.25;7277533;39;20097;31
2023/10/25 12:48:28;;;;;;;;;;;;;;;11.87;100.00;97190.97;7265329;39;20004;31
2023/10/25 12:59:09;;;;;;;;;;;;;;;11.91;99.65;97173.25;7297527;39;20018;31
2023/10/25 13:04:30;;;;;;;;;;;;;;;11.92;100.00;97170.34;7298474;39;20019;31
2023/10/25 13:09:50;;;;;;;;;;;;;;;11.93;100.00;97158.50;7323229;39;21183;31
2023/10/25 13:20:32;;;;;;;;;;;;;;;11.91;100.00;97146.25;7349684;39;20006;31
2023/10/25 13:25:53;;;;;;;;;;;;;;;11.89;100.00;97130.28;7340142;39;20058;31
2023/10/25 13:31:12;;;;;;;;;;;;;;;11.93;100.00;97125.28;7349768;39;20280;31
2023/10/25 13:41:54;;;;;;;;;;;;;;;12.02;100.00;97105.81;7319279;39;20004;31
2023/10/25 13:52:20;;;;;;;;;;;;;;;12.17;100.00;97102.72;7319636;39;20104;31
2023/10/25 14:02:59;;;;;;;;;;;;;;;12.37;100.00;97086.25;7317811;39;21128;31
2023/10/25 14:13:39;;;;;;;;;;;;;;;12.60;100.00;97072.81;7315592;39;20039;31
2023/10/25 14:19:16;;;;;;;;;;;;;;;12.73;100.00;97053.66;7278102;40;20003;31
2023/10/25 14:24:34;;;;;;;;;;;;;;;12.86;100.00;97047.22;7245129;39;19997;31
2023/10/25 14:29:54;;;;;;;;;;;;;;;12.97;100.00;97043.72;7255922;40;20000;31
2023/10/25 14:35:30;;;;;;;;;;;;;;;13.03;100.00;97031.97;7259099;39;20238;31
2023/10/25 14:41:06;;;;;;;;;;;;;;;13.09;100.00;97020.19;7283026;39;19992;31
2023/10/25 14:46:44;;;;;;;;;;;;;;;13.09;100.00;97031.00;7314899;39;20015;31
2023/10/25 14:52:20;;;;;;;;;;;;;;;13.10;100.00;97024.56;7267117;40;20336;31
2023/10/25 14:57:55;;;;;;;;;;;;;;;13.09;100.00;97018.31;7232165;40;20059;31
2023/10/25 15:03:16;;;;;;;;;;;;;;;13.12;100.00;97018.94;7208889;40;19994;31
2023/10/25 15:08:52;;;;;;;;;;;;;;;13.12;100.00;97011.63;7241043;39;19992;31
2023/10/25 15:14:13;;;;;;;;;;;;;;;13.13;100.00;96996.22;7275116;39;20006;31
2023/10/25 15:19:48;;;;;;;;;;;;;;;13.13;100.00;96994.34;7286936;39;19992;31
2023/10/25 15:25:25;;;;;;;;;;;;;;;13.16;100.00;96976.84;7278793;40;19997;31
2023/10/25 15:31:04;;;;;;;;;;;;;;;13.18;100.00;96983.66;7267734;40;20011;31
2023/10/25 15:36:21;;;;;;;;;;;;;;;13.16;100.00;96966.03;7237757;40;20009;31
2023/10/25 15:47:02;;;;;;;;;;;;;;;13.22;100.00;96941.53;7274834;39;20003;31
2023/10/25 15:52:37;;;;;;;;;;;;;;;13.20;100.00;96967.19;7266336;39;20004;31
2023/10/25 15:57:57;;;;;;;;;;;;;;;13.15;100.00;96986.00;7234929;40;20005;31
2023/10/25 16:03:33;;;;;;;;;;;;;;;13.08;100.00;96989.63;7258655;39;19992;31
2023/10/25 16:09:08;;;;;;;;;;;;;;;13.05;100.00;96984.69;7207209;40;19994;31
2023/10/25 16:14:43;;;;;;;;;;;;;;;12.99;100.00;96979.38;7259612;39;20114;31
2023/10/25 16:20:21;;;;;;;;;;;;;;;12.95;100.00;96962.00;7240412;40;19993;31
2023/10/25 16:25:40;;;;;;;;;;;;;;;12.96;100.00;96936.59;7232805;40;19992;31
2023/10/25 16:31:16;;;;;;;;;;;;;;;12.94;100.00;96941.44;7200748;40;20012;31
2023/10/25 16:36:52;;;;;;;;;;;;;;;12.91;100.00;96937.31;7155912;40;20022;31
2023/10/25 16:42:13;;;;;;;;;;;;;;;12.92;100.00;96935.44;7224569;39;20017;31
2023/10/25 16:47:32;;;;;;;;;;;;;;;12.90;100.00;96927.56;7264242;39;20004;31
2023/10/25 16:53:08;;;;;;;;;;;;;;;12.85;100.00;96919.34;7268696;39;20004;31
2023/10/25 16:58:29;;;;;;;;;;;;;;;12.84;100.00;96936.63;7230227;40;21158;31
2023/10/25 17:03:49;;;;;;;;;;;;;;;12.85;100.00;96945.56;7223597;40;19997;31
2023/10/25 17:09:25;;;;;;;;;;;;;;;12.91;100.00;96941.91;7245221;40;19992;31
2023/10/25 17:15:00;;;;;;;;;;;;;;;12.94;100.00;96933.34;7266972;40;20004;31
2023/10/25 17:20:21;;;;;;;;;;;;;;;12.99;100.00;96938.81;7239167;40;19992;31
2023/10/25 17:25:57;;;;;;;;;;;;;;;13.03;100.00;96934.63;7238434;40;20008;31
2023/10/25 17:31:32;;;;;;;;;;;;;;;13.06;100.00;96932.25;7235449;40;20007;31
2023/10/25 17:36:52;;;;;;;;;;;;;;;13.13;100.00;96939.44;7245677;40;20009;31
2023/10/25 17:42:28;;;;;;;;;;;;;;;13.16;100.00;96936.25;7267716;40;20003;31
2023/10/25 17:48:03;;;;;;;;;;;;;;;13.19;100.00;96933.91;7258931;40;19997;31
2023/10/25 17:53:38;;;;;;;;;;;;;;;13.20;100.00;96930.13;7178850;40;21101;31
2023/10/25 18:04:19;;;;;;;;;;;;;;;13.20;100.00;96930.13;7200610;40;20379;31
2023/10/25 18:09:40;;;;;;;;;;;;;;;13.25;100.00;96941.03;7247026;40;20024;31
2023/10/25 18:15:04;;;;;;;;;;;;;;;13.29;100.00;96963.88;7273155;39;20027;31
2023/10/25 18:20:37;;;;;;;;;;;;;;;13.33;100.00;96975.87;7298379;39;20007;31
2023/10/25 18:31:02;;;;;;;;;;;;;;;13.27;100.00;97000.34;7042991;40;20918;31
2023/10/25 18:36:37;;;;;;;;;;;;;;;13.27;100.00;97016.56;7259887;40;20376;31
2023/10/25 18:41:58;;;;;;;;;;;;;;;13.25;100.00;97030.31;7224973;40;21084;31
2023/10/25 18:47:18;;;;;;;;;;;;;;;13.26;100.00;97066.31;7257690;40;20451;31
2023/10/25 18:52:59;;;;;;;;;;;;;;;13.17;100.00;97049.63;7136949;39;19996;31
2023/10/25 18:58:21;;;;;;;;;;;;;;;13.14;100.00;97069.03;7274783;39;19991;31
2023/10/25 19:03:41;;;;;;;;;;;;;;;13.10;100.00;97070.53;7285930;39;20459;31
2023/10/25 19:14:23;;;;;;;;;;;;;;;13.03;100.00;97086.06;7270193;39;19992;31
2023/10/25 19:19:43;;;;;;;;;;;;;;;12.98;100.00;97097.56;7269604;39;20015;31
2023/10/25 19:25:03;;;;;;;;;;;;;;;12.96;100.00;97099.69;7284140;39;20459;31
2023/10/25 19:30:37;;;;;;;;;;;;;;;12.91;100.00;97110.38;7296562;40;20319;31
2023/10/25 19:35:58;;;;;;;;;;;;;;;12.89;100.00;97125.19;7260969;39;20081;31
2023/10/25 19:41:18;;;;;;;;;;;;;;;12.88;100.00;97140.56;7278499;39;20444;31
2023/10/25 19:46:54;;;;;;;;;;;;;;;12.86;100.00;97147.25;7240787;40;20612;31
2023/10/25 19:52:16;;;;;;;;;;;;;;;12.89;100.00;97154.94;7169105;40;20006;31
2023/10/25 19:57:51;;;;;;;;;;;;;;;12.87;100.00;97149.75;7181341;40;20520;31
2023/10/25 20:03:28;;;;;;;;;;;;;;;12.84;100.00;97158.31;7272200;39;20004;31
2023/10/25 20:08:49;;;;;;;;;;;;;;;12.79;100.00;97195.19;7176950;40;20562;31
2023/10/25 20:14:10;;;;;;;;;;;;;;;12.81;100.00;97187.69;7224725;40;20459;31
2023/10/25 20:19:47;;;;;;;;;;;;;;;12.79;99.72;97189.78;7249228;40;20004;31
2023/10/25 20:25:07;;;;;;;;;;;;;;;12.79;100.00;97204.16;7274372;39;20553;31
2023/10/25 20:30:27;;;;;;;;;;;;;;;12.79;99.58;97206.03;7264003;40;20435;31
2023/10/25 20:36:03;;;;;;;;;;;;;;;12.80;99.27;97222.03;7256483;40;20526;31
2023/10/25 20:41:25;;;;;;;;;;;;;;;12.80;99.39;97215.78;7244339;39;19993;31
2023/10/25 20:46:45;;;;;;;;;;;;;;;12.78;99.39;97207.06;7293068;39;19992;31
2023/10/25 20:52:21;;;;;;;;;;;;;;;12.77;99.72;97210.84;7320385;39;21130;31
2023/10/25 21:02:47;;;;;;;;;;;;;;;12.80;98.73;97240.13;7342628;39;20474;31
2023/10/25 21:13:28;;;;;;;;;;;;;;;12.80;99.13;97219.31;7362304;39;20525;31
2023/10/25 21:24:08;;;;;;;;;;;;;;;12.84;98.87;97236.72;7299994;39;20573;31
2023/10/25 21:34:48;;;;;;;;;;;;;;;12.83;98.87;97236.94;7227721;40;20029;31
2023/10/25 21:40:08;;;;;;;;;;;;;;;12.86;98.34;97247.28;7226982;40;20286;31
2023/10/25 21:45:29;;;;;;;;;;;;;;;12.88;97.83;97262.25;7271028;39;20008;31
2023/10/25 21:56:10;;;;;;;;;;;;;;;12.94;96.91;97264.06;7304048;39;20002;31
2023/10/25 22:01:46;;;;;;;;;;;;;;;12.93;97.08;97264.28;7299267;40;19999;31
2023/10/25 22:07:06;;;;;;;;;;;;;;;12.94;96.14;97264.06;7274667;40;20564;31
2023/10/25 22:12:43;;;;;;;;;;;;;;;12.95;96.10;97268.38;7298695;40;20088;31
2023/10/25 22:18:03;;;;;;;;;;;;;;;12.95;95.61;97262.16;7249464;40;19997;31
2023/10/25 22:23:39;;;;;;;;;;;;;;;12.93;96.17;97267.81;7278438;39;20053;31
2023/10/25 22:29:16;;;;;;;;;;;;;;;12.94;95.33;97260.53;7278525;40;20003;31
2023/10/25 22:34:54;;;;;;;;;;;;;;;12.95;94.60;97267.56;7255250;40;20601;31
2023/10/25 22:40:12;;;;;;;;;;;;;;;12.91;95.22;97261.78;7268520;40;19992;31
2023/10/25 22:45:48;;;;;;;;;;;;;;;12.94;94.82;97263.22;7256982;40;20515;31
2023/10/25 22:51:24;;;;;;;;;;;;;;;12.93;94.58;97277.78;7261207;40;19992;31
2023/10/25 22:56:45;;;;;;;;;;;;;;;12.92;94.45;97281.53;7277692;40;20003;31
2023/10/25 23:02:21;;;;;;;;;;;;;;;12.94;94.63;97279.44;7263754;40;20455;31
2023/10/25 23:07:41;;;;;;;;;;;;;;;12.94;94.43;97287.56;7289170;40;20077;31
2023/10/25 23:13:18;;;;;;;;;;;;;;;12.91;94.68;97299.62;7281595;40;20170;31
2023/10/25 23:18:53;;;;;;;;;;;;;;;12.88;95.38;97307.38;7269651;40;20068;31
2023/10/25 23:24:13;;;;;;;;;;;;;;;12.85;96.03;97303.28;7242383;40;20463;31
2023/10/25 23:29:49;;;;;;;;;;;;;;;12.83;95.87;97312.66;7274098;39;19999;31
2023/10/25 23:35:25;;;;;;;;;;;;;;;12.82;95.98;97321.81;7241023;40;20460;31
2023/10/25 23:41:00;;;;;;;;;;;;;;;12.87;95.84;97321.97;7204479;40;20107;31
2023/10/25 23:46:21;;;;;;;;;;;;;;;12.85;95.50;97322.19;7251420;40;19997;31
2023/10/25 23:51:58;;;;;;;;;;;;;;;12.84;94.98;97312.44;7301034;39;19992;31
2023/10/25 23:57:19;;;;;;;;;;;;;;;12.85;95.24;97326.78;7270963;40;19992;31
